sensor_id;sensor_type;location;lat;lon;timestamp;temperature;humidity
480;DHT22;226;48.606;9.096;2024-03-23T01:20:30;7.20;81.60
480;DHT22;226;48.606;9.096;2024-03-23T01:22:57;7.30;80.50
480;DHT22;226;48.606;9.096;2024-03-23T01:25:23;7.20;80.60
480;DHT22;226;48.606;9.096;2024-03-23T01:27:52;7.30;80.80
480;DHT22;226;48.606;9.096;2024-03-23T01:30:18;7.20;81.90
480;DHT22;226;48.606;9.096;2024-03-23T01:32:46;7.30;81.50
480;DHT22;226;48.606;9.096;2024-03-23T01:35:13;7.30;80.00
480;DHT22;226;48.606;9.096;2024-03-23T01:37:40;7.40;81.00
480;DHT22;226;48.606;9.096;2024-03-23T01:40:07;7.60;80.70
480;DHT22;226;48.606;9.096;2024-03-23T01:42:35;7.40;80.70
480;DHT22;226;48.606;9.096;2024-03-23T01:45:07;7.40;80.50
480;DHT22;226;48.606;9.096;2024-03-23T01:47:35;7.40;80.20
480;DHT22;226;48.606;9.096;2024-03-23T01:50:02;7.50;79.80
480;DHT22;226;48.606;9.096;2024-03-23T01:52:29;7.50;79.60
480;DHT22;226;48.606;9.096;2024-03-23T01:54:56;7.60;80.20
480;DHT22;226;48.606;9.096;2024-03-23T01:57:23;7.50;79.70
480;DHT22;226;48.606;9.096;2024-03-23T01:59:50;7.90;79.80
480;DHT22;226;48.606;9.096;2024-03-23T02:02:18;8.00;78.30
480;DHT22;226;48.606;9.096;2024-03-23T02:04:46;8.10;78.50
480;DHT22;226;48.606;9.096;2024-03-23T02:07:13;8.30;77.40
480;DHT22;226;48.606;9.096;2024-03-23T02:09:39;8.40;76.80
480;DHT22;226;48.606;9.096;2024-03-23T02:12:07;8.60;76.00
480;DHT22;226;48.606;9.096;2024-03-23T02:14:33;8.70;75.00
480;DHT22;226;48.606;9.096;2024-03-23T02:17:00;8.90;74.50
480;DHT22;226;48.606;9.096;2024-03-23T02:19:28;8.90;73.80
480;DHT22;226;48.606;9.096;2024-03-23T02:21:55;9.10;72.90
480;DHT22;226;48.606;9.096;2024-03-23T02:24:23;9.10;71.80
480;DHT22;226;48.606;9.096;2024-03-23T02:26:50;9.20;71.10
480;DHT22;226;48.606;9.096;2024-03-23T02:29:16;9.20;71.40
480;DHT22;226;48.606;9.096;2024-03-23T02:31:45;9.30;70.10
480;DHT22;226;48.606;9.096;2024-03-23T02:34:11;9.30;69.40
480;DHT22;226;48.606;9.096;2024-03-23T02:36:38;9.30;69.20
480;DHT22;226;48.606;9.096;2024-03-23T02:39:05;9.30;69.30
480;DHT22;226;48.606;9.096;2024-03-23T02:41:33;9.30;68.90
480;DHT22;226;48.606;9.096;2024-03-23T02:44:00;9.30;68.60
480;DHT22;226;48.606;9.096;2024-03-23T02:46:27;9.30;69.60
480;DHT22;226;48.606;9.096;2024-03-23T02:48:53;9.20;68.30
480;DHT22;226;48.606;9.096;2024-03-23T02:51:22;9.20;68.60
480;DHT22;226;48.606;9.096;2024-03-23T02:53:48;9.20;69.20
480;DHT22;226;48.606;9.096;2024-03-23T02:56:16;9.20;68.90
480;DHT22;226;48.606;9.096;2024-03-23T02:58:43;9.10;68.70
480;DHT22;226;48.606;9.096;2024-03-23T03:01:11;9.20;68.60
480;DHT22;226;48.606;9.096;2024-03-23T03:03:37;9.20;69.90
480;DHT22;226;48.606;9.096;2024-03-23T03:06:04;9.10;69.80
480;DHT22;226;48.606;9.096;2024-03-23T03:08:30;9.10;70.20
480;DHT22;226;48.606;9.096;2024-03-23T03:10:58;9.00;69.40
480;DHT22;226;48.606;9.096;2024-03-23T03:13:24;8.90;69.80
480;DHT22;226;48.606;9.096;2024-03-23T03:15:52;8.80;70.20
480;DHT22;226;48.606;9.096;2024-03-23T03:18:19;8.90;70.70
480;DHT22;226;48.606;9.096;2024-03-23T03:20:46;8.90;71.30
480;DHT22;226;48.606;9.096;2024-03-23T03:23:12;8.90;71.60
480;DHT22;226;48.606;9.096;2024-03-23T03:25:39;8.80;71.40
480;DHT22;226;48.606;9.096;2024-03-23T03:28:06;9.00;73.00
480;DHT22;226;48.606;9.096;2024-03-23T03:30:33;9.10;72.70
480;DHT22;226;48.606;9.096;2024-03-23T03:33:00;9.10;72.00
480;DHT22;226;48.606;9.096;2024-03-23T03:35:28;9.00;71.50
480;DHT22;226;48.606;9.096;2024-03-23T03:37:56;9.00;71.80
480;DHT22;226;48.606;9.096;2024-03-23T03:40:23;9.00;70.70
480;DHT22;226;48.606;9.096;2024-03-23T03:42:50;8.90;70.30
480;DHT22;226;48.606;9.096;2024-03-23T03:45:17;8.90;69.30
480;DHT22;226;48.606;9.096;2024-03-23T03:47:43;8.80;69.70
480;DHT22;226;48.606;9.096;2024-03-23T03:50:12;8.70;70.30
480;DHT22;226;48.606;9.096;2024-03-23T03:52:38;8.30;69.00
480;DHT22;226;48.606;9.096;2024-03-23T03:55:12;8.60;70.00
480;DHT22;226;48.606;9.096;2024-03-23T03:57:38;8.30;71.00
480;DHT22;226;48.606;9.096;2024-03-23T04:00:07;8.10;75.80
480;DHT22;226;48.606;9.096;2024-03-23T04:02:34;7.90;78.20
480;DHT22;226;48.606;9.096;2024-03-23T04:05:01;7.80;80.00
480;DHT22;226;48.606;9.096;2024-03-23T04:07:29;7.80;81.50
480;DHT22;226;48.606;9.096;2024-03-23T04:09:56;7.60;80.50
480;DHT22;226;48.606;9.096;2024-03-23T04:12:23;7.50;82.40
480;DHT22;226;48.606;9.096;2024-03-23T04:14:51;7.40;84.20
480;DHT22;226;48.606;9.096;2024-03-23T04:17:17;7.40;86.40
480;DHT22;226;48.606;9.096;2024-03-23T04:19:44;7.40;86.90
480;DHT22;226;48.606;9.096;2024-03-23T04:22:11;7.40;88.00
480;DHT22;226;48.606;9.096;2024-03-23T04:24:39;7.40;88.20
480;DHT22;226;48.606;9.096;2024-03-23T04:27:05;7.40;87.90
480;DHT22;226;48.606;9.096;2024-03-23T04:29:33;7.40;86.90
480;DHT22;226;48.606;9.096;2024-03-23T04:31:59;7.50;87.20
480;DHT22;226;48.606;9.096;2024-03-23T04:34:27;7.40;86.60
480;DHT22;226;48.606;9.096;2024-03-23T04:36:53;7.50;86.10
480;DHT22;226;48.606;9.096;2024-03-23T04:39:21;7.50;85.90
480;DHT22;226;48.606;9.096;2024-03-23T04:41:49;7.50;86.40
480;DHT22;226;48.606;9.096;2024-03-23T04:44:16;7.40;85.50
480;DHT22;226;48.606;9.096;2024-03-23T04:46:44;7.40;86.10
480;DHT22;226;48.606;9.096;2024-03-23T04:49:11;7.30;86.80
480;DHT22;226;48.606;9.096;2024-03-23T04:51:38;7.40;89.20
480;DHT22;226;48.606;9.096;2024-03-23T04:54:05;7.60;90.20
480;DHT22;226;48.606;9.096;2024-03-23T04:56:32;7.60;86.30
480;DHT22;226;48.606;9.096;2024-03-23T04:59:01;7.60;87.10
480;DHT22;226;48.606;9.096;2024-03-23T05:01:30;7.50;91.00
480;DHT22;226;48.606;9.096;2024-03-23T05:03:58;7.60;93.80
480;DHT22;226;48.606;9.096;2024-03-23T05:06:24;8.10;99.90
480;DHT22;226;48.606;9.096;2024-03-23T05:08:51;8.40;99.90
480;DHT22;226;48.606;9.096;2024-03-23T05:11:18;8.80;99.90
480;DHT22;226;48.606;9.096;2024-03-23T05:13:46;9.20;99.00
480;DHT22;226;48.606;9.096;2024-03-23T05:16:14;9.50;98.60
480;DHT22;226;48.606;9.096;2024-03-23T05:21:10;9.60;96.70
480;DHT22;226;48.606;9.096;2024-03-23T05:23:36;9.70;97.30
480;DHT22;226;48.606;9.096;2024-03-23T05:26:04;9.80;97.70
480;DHT22;226;48.606;9.096;2024-03-23T05:28:30;9.80;97.70
480;DHT22;226;48.606;9.096;2024-03-23T05:30:57;9.80;97.80
480;DHT22;226;48.606;9.096;2024-03-23T05:33:25;9.80;98.30
480;DHT22;226;48.606;9.096;2024-03-23T05:35:56;9.80;98.80
480;DHT22;226;48.606;9.096;2024-03-23T05:38:23;9.70;97.10
480;DHT22;226;48.606;9.096;2024-03-23T05:40:54;9.60;98.00
480;DHT22;226;48.606;9.096;2024-03-23T05:43:20;9.60;98.10
480;DHT22;226;48.606;9.096;2024-03-23T05:45:53;9.50;97.70
480;DHT22;226;48.606;9.096;2024-03-23T05:48:20;9.50;99.30
480;DHT22;226;48.606;9.096;2024-03-23T05:50:49;9.40;98.90
480;DHT22;226;48.606;9.096;2024-03-23T05:53:16;9.50;99.40
480;DHT22;226;48.606;9.096;2024-03-23T05:55:43;9.30;99.80
480;DHT22;226;48.606;9.096;2024-03-23T05:58:10;9.40;99.90
480;DHT22;226;48.606;9.096;2024-03-23T06:00:37;9.30;99.90
480;DHT22;226;48.606;9.096;2024-03-23T06:03:04;9.40;99.80
480;DHT22;226;48.606;9.096;2024-03-23T06:05:31;9.30;99.50
480;DHT22;226;48.606;9.096;2024-03-23T06:07:59;9.20;98.30
480;DHT22;226;48.606;9.096;2024-03-23T06:10:26;9.20;98.20
480;DHT22;226;48.606;9.096;2024-03-23T06:12:52;9.20;98.10
480;DHT22;226;48.606;9.096;2024-03-23T06:15:19;9.10;95.40
480;DHT22;226;48.606;9.096;2024-03-23T06:17:46;9.10;94.90
480;DHT22;226;48.606;9.096;2024-03-23T06:20:13;9.10;92.20
480;DHT22;226;48.606;9.096;2024-03-23T06:22:39;9.20;91.40
480;DHT22;226;48.606;9.096;2024-03-23T06:25:08;8.90;90.40
480;DHT22;226;48.606;9.096;2024-03-23T06:27:35;9.00;92.00
480;DHT22;226;48.606;9.096;2024-03-23T06:30:02;8.90;91.50
480;DHT22;226;48.606;9.096;2024-03-23T06:32:28;8.90;91.10
480;DHT22;226;48.606;9.096;2024-03-23T06:34:56;8.80;91.80
480;DHT22;226;48.606;9.096;2024-03-23T06:37:22;8.90;91.40
480;DHT22;226;48.606;9.096;2024-03-23T06:39:49;8.80;91.30
480;DHT22;226;48.606;9.096;2024-03-23T06:42:17;9.10;91.90
480;DHT22;226;48.606;9.096;2024-03-23T06:44:44;8.80;91.90
480;DHT22;226;48.606;9.096;2024-03-23T06:47:10;8.80;91.90
480;DHT22;226;48.606;9.096;2024-03-23T06:49:37;8.80;90.40
480;DHT22;226;48.606;9.096;2024-03-23T06:52:05;8.70;90.30
480;DHT22;226;48.606;9.096;2024-03-23T06:54:31;8.70;90.10
480;DHT22;226;48.606;9.096;2024-03-23T06:56:58;8.60;90.50
480;DHT22;226;48.606;9.096;2024-03-23T06:59:26;8.70;90.20
480;DHT22;226;48.606;9.096;2024-03-23T07:01:53;8.60;86.60
480;DHT22;226;48.606;9.096;2024-03-23T07:04:19;8.60;89.60
480;DHT22;226;48.606;9.096;2024-03-23T07:06:47;8.60;87.60
480;DHT22;226;48.606;9.096;2024-03-23T07:09:13;8.50;87.30
480;DHT22;226;48.606;9.096;2024-03-23T07:11:40;8.60;87.80
480;DHT22;226;48.606;9.096;2024-03-23T07:14:07;8.50;85.80
480;DHT22;226;48.606;9.096;2024-03-23T07:19:03;8.50;85.60
480;DHT22;226;48.606;9.096;2024-03-23T07:21:30;8.50;86.10
480;DHT22;226;48.606;9.096;2024-03-23T07:23:56;8.60;87.20
480;DHT22;226;48.606;9.096;2024-03-23T07:26:24;8.80;86.20
480;DHT22;226;48.606;9.096;2024-03-23T07:28:50;8.80;85.90
480;DHT22;226;48.606;9.096;2024-03-23T07:31:18;8.80;84.20
480;DHT22;226;48.606;9.096;2024-03-23T07:33:47;8.90;85.10
480;DHT22;226;48.606;9.096;2024-03-23T07:36:14;9.10;84.60
480;DHT22;226;48.606;9.096;2024-03-23T07:41:11;9.10;79.60
480;DHT22;226;48.606;9.096;2024-03-23T07:43:38;9.40;80.70
480;DHT22;226;48.606;9.096;2024-03-23T07:46:06;9.50;81.60
480;DHT22;226;48.606;9.096;2024-03-23T07:48:33;9.60;79.90
480;DHT22;226;48.606;9.096;2024-03-23T07:51:03;9.80;81.50
480;DHT22;226;48.606;9.096;2024-03-23T07:53:30;9.70;77.60
480;DHT22;226;48.606;9.096;2024-03-23T07:56:04;9.40;76.60
480;DHT22;226;48.606;9.096;2024-03-23T07:58:31;9.20;74.10
480;DHT22;226;48.606;9.096;2024-03-23T08:01:04;8.90;76.60
480;DHT22;226;48.606;9.096;2024-03-23T08:03:31;8.80;79.50
480;DHT22;226;48.606;9.096;2024-03-23T08:05:58;8.80;81.10
480;DHT22;226;48.606;9.096;2024-03-23T08:08:33;8.70;80.90
480;DHT22;226;48.606;9.096;2024-03-23T08:11:00;8.80;82.40
480;DHT22;226;48.606;9.096;2024-03-23T08:13:27;8.70;77.50
480;DHT22;226;48.606;9.096;2024-03-23T08:15:56;8.70;78.60
480;DHT22;226;48.606;9.096;2024-03-23T08:18:23;8.70;75.20
480;DHT22;226;48.606;9.096;2024-03-23T08:21:00;8.70;73.90
480;DHT22;226;48.606;9.096;2024-03-23T08:23:28;8.80;74.50
480;DHT22;226;48.606;9.096;2024-03-23T08:25:59;8.90;72.40
480;DHT22;226;48.606;9.096;2024-03-23T08:28:25;8.80;71.80
480;DHT22;226;48.606;9.096;2024-03-23T08:30:53;8.90;68.90
480;DHT22;226;48.606;9.096;2024-03-23T08:33:20;8.90;65.60
480;DHT22;226;48.606;9.096;2024-03-23T08:35:53;8.80;66.30
480;DHT22;226;48.606;9.096;2024-03-23T08:38:20;8.80;63.00
480;DHT22;226;48.606;9.096;2024-03-23T08:43:16;8.70;69.70
480;DHT22;226;48.606;9.096;2024-03-23T08:45:43;8.80;71.70
480;DHT22;226;48.606;9.096;2024-03-23T08:48:09;8.50;67.30
480;DHT22;226;48.606;9.096;2024-03-23T08:50:36;8.70;67.60
480;DHT22;226;48.606;9.096;2024-03-23T08:53:02;8.60;66.50
480;DHT22;226;48.606;9.096;2024-03-23T08:55:30;8.50;64.70
480;DHT22;226;48.606;9.096;2024-03-23T08:57:56;8.50;64.50
480;DHT22;226;48.606;9.096;2024-03-23T09:00:25;8.70;65.40
480;DHT22;226;48.606;9.096;2024-03-23T09:02:51;8.90;62.70
480;DHT22;226;48.606;9.096;2024-03-23T09:05:19;9.00;58.90
480;DHT22;226;48.606;9.096;2024-03-23T09:07:45;8.90;58.90
480;DHT22;226;48.606;9.096;2024-03-23T09:10:13;8.90;58.60
480;DHT22;226;48.606;9.096;2024-03-23T09:12:39;8.80;58.20
480;DHT22;226;48.606;9.096;2024-03-23T09:15:07;8.60;57.20
480;DHT22;226;48.606;9.096;2024-03-23T09:17:35;8.60;58.40
480;DHT22;226;48.606;9.096;2024-03-23T09:20:02;8.60;58.60
480;DHT22;226;48.606;9.096;2024-03-23T09:22:30;8.60;58.60
480;DHT22;226;48.606;9.096;2024-03-23T09:24:57;8.70;60.00
480;DHT22;226;48.606;9.096;2024-03-23T09:27:23;8.80;59.90
480;DHT22;226;48.606;9.096;2024-03-23T09:29:51;8.80;60.50
480;DHT22;226;48.606;9.096;2024-03-23T09:32:17;8.90;61.70
480;DHT22;226;48.606;9.096;2024-03-23T09:34:46;9.00;61.70
480;DHT22;226;48.606;9.096;2024-03-23T09:37:12;9.10;59.40
480;DHT22;226;48.606;9.096;2024-03-23T09:39:39;9.30;57.20
480;DHT22;226;48.606;9.096;2024-03-23T09:42:06;9.50;58.30
480;DHT22;226;48.606;9.096;2024-03-23T09:44:35;9.70;55.60
480;DHT22;226;48.606;9.096;2024-03-23T09:47:02;9.90;53.50
480;DHT22;226;48.606;9.096;2024-03-23T09:49:29;9.60;50.00
480;DHT22;226;48.606;9.096;2024-03-23T09:51:57;9.20;51.70
480;DHT22;226;48.606;9.096;2024-03-23T09:54:25;9.00;51.00
480;DHT22;226;48.606;9.096;2024-03-23T09:56:51;8.80;53.70
480;DHT22;226;48.606;9.096;2024-03-23T09:59:18;8.70;56.00
480;DHT22;226;48.606;9.096;2024-03-23T10:01:44;8.70;59.20
480;DHT22;226;48.606;9.096;2024-03-23T10:04:12;8.60;55.90
480;DHT22;226;48.606;9.096;2024-03-23T10:07:11;8.40;56.80
480;DHT22;226;48.606;9.096;2024-03-23T10:09:38;8.10;54.10
480;DHT22;226;48.606;9.096;2024-03-23T10:12:09;8.30;53.40
480;DHT22;226;48.606;9.096;2024-03-23T10:14:37;8.20;51.00
480;DHT22;226;48.606;9.096;2024-03-23T10:17:14;8.10;51.30
480;DHT22;226;48.606;9.096;2024-03-23T10:19:43;8.20;49.20
480;DHT22;226;48.606;9.096;2024-03-23T10:22:14;8.20;50.50
480;DHT22;226;48.606;9.096;2024-03-23T10:24:42;8.30;49.80
480;DHT22;226;48.606;9.096;2024-03-23T10:27:08;8.40;48.70
480;DHT22;226;48.606;9.096;2024-03-23T10:29:35;8.50;47.30
480;DHT22;226;48.606;9.096;2024-03-23T10:32:09;8.70;46.40
480;DHT22;226;48.606;9.096;2024-03-23T10:34:37;9.00;46.90
480;DHT22;226;48.606;9.096;2024-03-23T10:37:04;9.30;47.80
480;DHT22;226;48.606;9.096;2024-03-23T10:39:35;9.70;44.50
480;DHT22;226;48.606;9.096;2024-03-23T10:42:06;9.60;43.80
480;DHT22;226;48.606;9.096;2024-03-23T10:44:34;9.70;40.90
480;DHT22;226;48.606;9.096;2024-03-23T10:47:01;9.80;42.00
480;DHT22;226;48.606;9.096;2024-03-23T10:49:29;9.50;40.10
480;DHT22;226;48.606;9.096;2024-03-23T10:52:01;9.30;42.40
480;DHT22;226;48.606;9.096;2024-03-23T14:16:50;7.90;55.00
480;DHT22;226;48.606;9.096;2024-03-23T14:41:11;11.30;4.40
480;DHT22;226;48.606;9.096;2024-03-23T14:43:38;11.30;4.90
480;DHT22;226;48.606;9.096;2024-03-23T14:46:08;10.80;5.00
480;DHT22;226;48.606;9.096;2024-03-23T14:48:36;10.40;5.00
480;DHT22;226;48.606;9.096;2024-03-23T14:51:03;9.90;6.50
480;DHT22;226;48.606;9.096;2024-03-23T14:53:32;9.50;7.40
480;DHT22;226;48.606;9.096;2024-03-23T14:55:59;9.20;8.40
480;DHT22;226;48.606;9.096;2024-03-23T14:58:29;8.90;7.60
480;DHT22;226;48.606;9.096;2024-03-23T15:01:00;8.70;8.30
480;DHT22;226;48.606;9.096;2024-03-23T15:03:26;8.30;11.40
480;DHT22;226;48.606;9.096;2024-03-23T15:05:54;7.40;24.00
480;DHT22;226;48.606;9.096;2024-03-23T15:08:21;7.30;33.20
480;DHT22;226;48.606;9.096;2024-03-23T15:10:48;7.50;29.40
480;DHT22;226;48.606;9.096;2024-03-23T15:13:15;7.50;31.00
480;DHT22;226;48.606;9.096;2024-03-23T15:15:44;7.80;29.90
480;DHT22;226;48.606;9.096;2024-03-23T15:18:11;8.30;25.00
480;DHT22;226;48.606;9.096;2024-03-23T15:20:41;8.70;22.30
480;DHT22;226;48.606;9.096;2024-03-23T15:23:07;8.80;22.20
480;DHT22;226;48.606;9.096;2024-03-23T15:25:34;9.00;18.90
480;DHT22;226;48.606;9.096;2024-03-23T15:28:01;9.50;21.00
480;DHT22;226;48.606;9.096;2024-03-23T15:30:28;10.30;29.50
480;DHT22;226;48.606;9.096;2024-03-23T15:32:56;11.40;29.00
480;DHT22;226;48.606;9.096;2024-03-23T15:35:24;12.40;29.00
480;DHT22;226;48.606;9.096;2024-03-23T15:37:50;13.20;12.00
480;DHT22;226;48.606;9.096;2024-03-23T15:40:17;12.80;8.90
480;DHT22;226;48.606;9.096;2024-03-23T15:42:44;12.30;22.70
480;DHT22;226;48.606;9.096;2024-03-23T15:45:11;10.90;10.20
480;DHT22;226;48.606;9.096;2024-03-23T15:47:37;9.90;14.90
480;DHT22;226;48.606;9.096;2024-03-23T15:50:07;9.40;18.60
480;DHT22;226;48.606;9.096;2024-03-23T15:52:35;9.00;20.30
480;DHT22;226;48.606;9.096;2024-03-23T15:55:03;8.50;22.00
480;DHT22;226;48.606;9.096;2024-03-23T15:57:33;8.10;24.30
480;DHT22;226;48.606;9.096;2024-03-23T16:00:00;7.50;21.20
480;DHT22;226;48.606;9.096;2024-03-23T16:02:27;7.00;24.00
480;DHT22;226;48.606;9.096;2024-03-23T16:04:54;6.90;27.40
480;DHT22;226;48.606;9.096;2024-03-23T16:07:22;6.90;26.40
480;DHT22;226;48.606;9.096;2024-03-23T16:09:49;6.80;27.50
480;DHT22;226;48.606;9.096;2024-03-23T16:12:16;6.80;27.20
480;DHT22;226;48.606;9.096;2024-03-23T16:14:43;6.70;28.40
480;DHT22;226;48.606;9.096;2024-03-23T16:17:09;6.60;27.80
480;DHT22;226;48.606;9.096;2024-03-23T16:19:37;6.50;28.90
480;DHT22;226;48.606;9.096;2024-03-23T16:22:03;6.50;29.60
480;DHT22;226;48.606;9.096;2024-03-23T16:24:32;6.60;35.70
480;DHT22;226;48.606;9.096;2024-03-23T16:26:58;6.50;29.40
480;DHT22;226;48.606;9.096;2024-03-23T16:29:25;6.30;28.70
480;DHT22;226;48.606;9.096;2024-03-23T16:31:51;6.10;27.80
480;DHT22;226;48.606;9.096;2024-03-23T16:34:19;6.20;29.40
480;DHT22;226;48.606;9.096;2024-03-23T16:36:45;6.20;28.90
480;DHT22;226;48.606;9.096;2024-03-23T16:39:12;6.20;27.70
480;DHT22;226;48.606;9.096;2024-03-23T16:41:42;6.30;29.20
480;DHT22;226;48.606;9.096;2024-03-23T16:44:09;6.40;30.00
480;DHT22;226;48.606;9.096;2024-03-23T16:46:36;6.50;28.70
480;DHT22;226;48.606;9.096;2024-03-23T16:49:04;6.50;27.40
480;DHT22;226;48.606;9.096;2024-03-23T16:51:30;6.50;28.80
480;DHT22;226;48.606;9.096;2024-03-23T16:53:58;6.50;27.00
480;DHT22;226;48.606;9.096;2024-03-23T16:56:26;6.50;24.30
480;DHT22;226;48.606;9.096;2024-03-23T16:58:54;6.50;23.70
480;DHT22;226;48.606;9.096;2024-03-23T17:01:21;6.40;23.20
480;DHT22;226;48.606;9.096;2024-03-23T17:03:51;6.50;25.30
480;DHT22;226;48.606;9.096;2024-03-23T17:06:17;6.40;22.80
480;DHT22;226;48.606;9.096;2024-03-23T17:08:46;6.30;24.20
480;DHT22;226;48.606;9.096;2024-03-23T17:11:13;6.30;23.70
480;DHT22;226;48.606;9.096;2024-03-23T17:13:40;6.30;24.60
480;DHT22;226;48.606;9.096;2024-03-23T17:16:08;6.20;24.60
480;DHT22;226;48.606;9.096;2024-03-23T17:18:36;6.20;24.90
480;DHT22;226;48.606;9.096;2024-03-23T17:21:03;6.20;25.60
480;DHT22;226;48.606;9.096;2024-03-23T17:23:31;6.20;24.40
480;DHT22;226;48.606;9.096;2024-03-23T17:25:57;6.10;26.50
480;DHT22;226;48.606;9.096;2024-03-23T17:28:25;6.10;24.60
480;DHT22;226;48.606;9.096;2024-03-23T17:30:52;6.10;25.90
480;DHT22;226;48.606;9.096;2024-03-23T17:33:20;6.00;26.60
480;DHT22;226;48.606;9.096;2024-03-23T17:35:49;6.10;27.20
480;DHT22;226;48.606;9.096;2024-03-23T17:38:16;6.20;26.30
480;DHT22;226;48.606;9.096;2024-03-23T17:40:42;6.20;28.10
480;DHT22;226;48.606;9.096;2024-03-23T17:43:10;6.20;26.80
480;DHT22;226;48.606;9.096;2024-03-23T17:45:36;6.10;27.60
480;DHT22;226;48.606;9.096;2024-03-23T17:48:04;5.80;28.90
480;DHT22;226;48.606;9.096;2024-03-23T17:50:31;5.70;29.50
480;DHT22;226;48.606;9.096;2024-03-23T17:52:59;5.50;33.40
480;DHT22;226;48.606;9.096;2024-03-23T17:55:26;5.10;39.70
480;DHT22;226;48.606;9.096;2024-03-23T17:57:53;5.00;43.90
480;DHT22;226;48.606;9.096;2024-03-23T18:00:22;4.90;38.20
480;DHT22;226;48.606;9.096;2024-03-23T18:02:49;5.00;45.30
480;DHT22;226;48.606;9.096;2024-03-23T18:05:16;4.80;37.00
480;DHT22;226;48.606;9.096;2024-03-23T18:07:46;4.70;37.70
480;DHT22;226;48.606;9.096;2024-03-23T18:10:13;4.90;41.10
480;DHT22;226;48.606;9.096;2024-03-23T18:12:40;4.60;38.30
480;DHT22;226;48.606;9.096;2024-03-23T18:15:07;4.60;40.20
480;DHT22;226;48.606;9.096;2024-03-23T18:17:34;4.60;41.90
480;DHT22;226;48.606;9.096;2024-03-23T18:20:00;4.60;42.40
480;DHT22;226;48.606;9.096;2024-03-23T18:22:28;4.70;42.90
480;DHT22;226;48.606;9.096;2024-03-23T18:24:56;4.70;45.40
480;DHT22;226;48.606;9.096;2024-03-23T18:27:23;4.70;42.90
480;DHT22;226;48.606;9.096;2024-03-23T18:29:49;4.50;46.20
480;DHT22;226;48.606;9.096;2024-03-23T18:32:17;4.90;48.40
480;DHT22;226;48.606;9.096;2024-03-23T18:37:17;5.10;48.50
480;DHT22;226;48.606;9.096;2024-03-23T18:39:44;5.00;48.10
480;DHT22;226;48.606;9.096;2024-03-23T18:42:12;5.10;47.70
480;DHT22;226;48.606;9.096;2024-03-23T18:44:39;5.00;47.40
480;DHT22;226;48.606;9.096;2024-03-23T18:47:06;5.00;48.00
480;DHT22;226;48.606;9.096;2024-03-23T18:49:33;4.90;43.80
480;DHT22;226;48.606;9.096;2024-03-23T18:51:59;4.90;46.10
480;DHT22;226;48.606;9.096;2024-03-23T18:54:26;4.80;46.40
480;DHT22;226;48.606;9.096;2024-03-23T18:56:53;4.80;46.90
480;DHT22;226;48.606;9.096;2024-03-23T18:59:22;4.80;47.70
480;DHT22;226;48.606;9.096;2024-03-23T19:01:48;4.70;48.50
480;DHT22;226;48.606;9.096;2024-03-23T19:04:15;4.70;49.90
480;DHT22;226;48.606;9.096;2024-03-23T19:06:41;4.70;46.70
480;DHT22;226;48.606;9.096;2024-03-23T19:09:08;4.60;47.80
480;DHT22;226;48.606;9.096;2024-03-23T19:11:35;4.60;48.50
480;DHT22;226;48.606;9.096;2024-03-23T19:14:03;4.50;49.40
480;DHT22;226;48.606;9.096;2024-03-23T19:16:30;4.50;50.20
480;DHT22;226;48.606;9.096;2024-03-23T19:18:57;4.50;48.30
480;DHT22;226;48.606;9.096;2024-03-23T19:21:25;4.50;49.50
480;DHT22;226;48.606;9.096;2024-03-23T19:23:53;4.40;49.80
480;DHT22;226;48.606;9.096;2024-03-23T19:26:19;4.40;49.80
480;DHT22;226;48.606;9.096;2024-03-23T19:28:46;4.30;49.40
480;DHT22;226;48.606;9.096;2024-03-23T19:31:12;4.30;49.30
480;DHT22;226;48.606;9.096;2024-03-23T19:33:43;4.30;49.00
480;DHT22;226;48.606;9.096;2024-03-23T19:36:10;4.30;49.20
480;DHT22;226;48.606;9.096;2024-03-23T19:38:38;4.20;47.60
480;DHT22;226;48.606;9.096;2024-03-23T19:41:05;4.20;48.10
480;DHT22;226;48.606;9.096;2024-03-23T19:43:33;4.20;47.60
480;DHT22;226;48.606;9.096;2024-03-23T19:46:02;4.20;46.40
480;DHT22;226;48.606;9.096;2024-03-23T19:48:29;4.10;47.80
480;DHT22;226;48.606;9.096;2024-03-23T19:50:57;4.10;46.10
480;DHT22;226;48.606;9.096;2024-03-23T19:53:25;4.10;49.30
480;DHT22;226;48.606;9.096;2024-03-23T19:55:55;4.10;47.80
480;DHT22;226;48.606;9.096;2024-03-23T19:58:23;4.00;50.60
480;DHT22;226;48.606;9.096;2024-03-23T20:00:49;4.00;50.50
480;DHT22;226;48.606;9.096;2024-03-23T20:03:17;4.00;45.50
480;DHT22;226;48.606;9.096;2024-03-23T20:05:43;3.90;46.20
480;DHT22;226;48.606;9.096;2024-03-23T20:08:12;3.90;44.40
480;DHT22;226;48.606;9.096;2024-03-23T20:10:46;3.80;44.90
480;DHT22;226;48.606;9.096;2024-03-23T20:13:13;3.80;51.90
480;DHT22;226;48.606;9.096;2024-03-23T20:15:39;3.70;54.70
480;DHT22;226;48.606;9.096;2024-03-23T20:18:08;3.70;53.00
480;DHT22;226;48.606;9.096;2024-03-23T20:20:34;3.60;50.20
480;DHT22;226;48.606;9.096;2024-03-23T20:23:01;3.70;46.30
480;DHT22;226;48.606;9.096;2024-03-23T20:25:29;3.70;45.80
480;DHT22;226;48.606;9.096;2024-03-23T20:27:56;3.70;45.40
480;DHT22;226;48.606;9.096;2024-03-23T20:30:22;3.70;45.60
480;DHT22;226;48.606;9.096;2024-03-23T20:32:50;3.70;44.30
480;DHT22;226;48.606;9.096;2024-03-23T20:35:16;3.70;44.50
480;DHT22;226;48.606;9.096;2024-03-23T20:37:43;3.80;44.80
480;DHT22;226;48.606;9.096;2024-03-23T20:40:10;3.80;44.10
480;DHT22;226;48.606;9.096;2024-03-23T20:42:39;3.80;43.70
480;DHT22;226;48.606;9.096;2024-03-23T20:45:05;3.80;44.80
480;DHT22;226;48.606;9.096;2024-03-23T20:47:33;3.80;44.50
480;DHT22;226;48.606;9.096;2024-03-23T20:50:03;3.80;44.00
480;DHT22;226;48.606;9.096;2024-03-23T20:52:31;3.80;43.30
480;DHT22;226;48.606;9.096;2024-03-23T20:54:58;3.80;43.70
480;DHT22;226;48.606;9.096;2024-03-23T20:57:25;3.80;44.80
480;DHT22;226;48.606;9.096;2024-03-23T20:59:52;3.90;45.40
480;DHT22;226;48.606;9.096;2024-03-23T21:02:22;3.90;45.50
480;DHT22;226;48.606;9.096;2024-03-23T21:04:49;4.00;44.50
480;DHT22;226;48.606;9.096;2024-03-23T21:07:16;4.00;44.30
480;DHT22;226;48.606;9.096;2024-03-23T21:09:42;4.00;44.00
480;DHT22;226;48.606;9.096;2024-03-23T21:12:09;4.00;44.10
480;DHT22;226;48.606;9.096;2024-03-23T21:14:35;4.10;45.10
480;DHT22;226;48.606;9.096;2024-03-23T21:17:04;4.20;45.70
480;DHT22;226;48.606;9.096;2024-03-23T21:19:30;4.20;47.80
480;DHT22;226;48.606;9.096;2024-03-23T21:21:58;4.20;49.90
480;DHT22;226;48.606;9.096;2024-03-23T21:24:24;4.30;49.70
480;DHT22;226;48.606;9.096;2024-03-23T21:26:51;4.30;51.30
480;DHT22;226;48.606;9.096;2024-03-23T21:29:17;4.40;50.50
480;DHT22;226;48.606;9.096;2024-03-23T21:31:44;4.40;51.50
480;DHT22;226;48.606;9.096;2024-03-23T21:34:12;4.40;52.90
480;DHT22;226;48.606;9.096;2024-03-23T21:36:39;4.50;53.20
480;DHT22;226;48.606;9.096;2024-03-23T21:39:06;4.60;50.60
480;DHT22;226;48.606;9.096;2024-03-23T21:41:33;4.50;47.00
480;DHT22;226;48.606;9.096;2024-03-23T21:43:59;4.50;49.50
480;DHT22;226;48.606;9.096;2024-03-23T21:46:26;4.50;51.70
480;DHT22;226;48.606;9.096;2024-03-23T21:48:52;4.60;52.30
480;DHT22;226;48.606;9.096;2024-03-23T21:51:21;4.60;51.80
480;DHT22;226;48.606;9.096;2024-03-23T21:53:47;4.60;51.80
480;DHT22;226;48.606;9.096;2024-03-23T21:56:14;4.70;51.50
480;DHT22;226;48.606;9.096;2024-03-23T21:58:41;4.70;50.80
480;DHT22;226;48.606;9.096;2024-03-23T22:01:08;4.60;51.10
480;DHT22;226;48.606;9.096;2024-03-23T22:03:34;4.60;52.50
480;DHT22;226;48.606;9.096;2024-03-23T22:06:02;4.60;50.50
480;DHT22;226;48.606;9.096;2024-03-23T22:08:30;4.60;48.50